sensor_id;sensor_type;location;lat;lon;timestamp;P1;durP1;ratioP1;P2;durP2;ratioP2
5612;SDS011;2828;53.582;9.956;2022-08-25T00:01:39;5.97;;;3.97;;
5612;SDS011;2828;53.582;9.956;2022-08-25T00:04:08;4.63;;;3.57;;
5612;SDS011;2828;53.582;9.956;2022-08-25T00:06:35;14.43;;;5.80;;
5612;SDS011;2828;53.582;9.956;2022-08-25T00:09:01;4.60;;;4.00;;
5612;SDS011;2828;53.582;9.956;2022-08-25T00:11:28;11.10;;;4.40;;
5612;SDS011;2828;53.582;9.956;2022-08-25T00:13:57;8.47;;;4.17;;
5612;SDS011;2828;53.582;9.956;2022-08-25T00:16:24;6.03;;;4.10;;
5612;SDS011;2828;53.582;9.956;2022-08-25T00:18:52;5.00;;;4.50;;
5612;SDS011;2828;53.582;9.956;2022-08-25T00:21:19;4.30;;;3.90;;
5612;SDS011;2828;53.582;9.956;2022-08-25T00:23:45;4.93;;;4.13;;
5612;SDS011;2828;53.582;9.956;2022-08-25T00:26:12;8.50;;;4.50;;
5612;SDS011;2828;53.582;9.956;2022-08-25T00:28:38;4.17;;;3.87;;
5612;SDS011;2828;53.582;9.956;2022-08-25T00:31:05;9.57;;;4.47;;
5612;SDS011;2828;53.582;9.956;2022-08-25T00:33:32;8.17;;;4.37;;
5612;SDS011;2828;53.582;9.956;2022-08-25T00:35:59;7.73;;;4.80;;
5612;SDS011;2828;53.582;9.956;2022-08-25T00:38:25;4.90;;;3.43;;
5612;SDS011;2828;53.582;9.956;2022-08-25T00:40:52;4.20;;;3.80;;
5612;SDS011;2828;53.582;9.956;2022-08-25T00:46:05;8.20;;;4.57;;
5612;SDS011;2828;53.582;9.956;2022-08-25T00:48:31;6.23;;;3.90;;
5612;SDS011;2828;53.582;9.956;2022-08-25T00:50:58;8.03;;;4.37;;
5612;SDS011;2828;53.582;9.956;2022-08-25T00:53:25;3.93;;;3.63;;
5612;SDS011;2828;53.582;9.956;2022-08-25T00:55:51;5.23;;;4.20;;
5612;SDS011;2828;53.582;9.956;2022-08-25T00:58:19;12.53;;;4.10;;
5612;SDS011;2828;53.582;9.956;2022-08-25T01:00:48;4.13;;;3.73;;
5612;SDS011;2828;53.582;9.956;2022-08-25T01:03:15;4.60;;;4.20;;
5612;SDS011;2828;53.582;9.956;2022-08-25T01:05:41;9.83;;;4.37;;
5612;SDS011;2828;53.582;9.956;2022-08-25T01:08:07;9.53;;;4.50;;
5612;SDS011;2828;53.582;9.956;2022-08-25T01:10:34;4.30;;;3.80;;
5612;SDS011;2828;53.582;9.956;2022-08-25T01:13:05;4.80;;;4.40;;
5612;SDS011;2828;53.582;9.956;2022-08-25T01:15:32;7.80;;;4.40;;
5612;SDS011;2828;53.582;9.956;2022-08-25T01:17:58;6.80;;;4.40;;
5612;SDS011;2828;53.582;9.956;2022-08-25T01:20:25;6.30;;;4.63;;
5612;SDS011;2828;53.582;9.956;2022-08-25T01:22:52;6.17;;;4.00;;
5612;SDS011;2828;53.582;9.956;2022-08-25T01:27:45;5.33;;;3.77;;
5612;SDS011;2828;53.582;9.956;2022-08-25T01:30:11;6.00;;;4.77;;
5612;SDS011;2828;53.582;9.956;2022-08-25T01:32:36;5.53;;;4.07;;
5612;SDS011;2828;53.582;9.956;2022-08-25T01:35:03;6.30;;;4.40;;
5612;SDS011;2828;53.582;9.956;2022-08-25T01:37:29;5.67;;;3.87;;
5612;SDS011;2828;53.582;9.956;2022-08-25T01:39:58;6.97;;;5.07;;
5612;SDS011;2828;53.582;9.956;2022-08-25T01:43:11;12.90;;;4.53;;
5612;SDS011;2828;53.582;9.956;2022-08-25T01:45:13;8.03;;;4.90;;
5612;SDS011;2828;53.582;9.956;2022-08-25T01:47:39;6.77;;;4.30;;
5612;SDS011;2828;53.582;9.956;2022-08-25T01:50:05;5.93;;;4.07;;
5612;SDS011;2828;53.582;9.956;2022-08-25T01:52:33;9.57;;;4.43;;
5612;SDS011;2828;53.582;9.956;2022-08-25T01:55:02;6.80;;;4.47;;
5612;SDS011;2828;53.582;9.956;2022-08-25T01:57:29;12.07;;;4.67;;
5612;SDS011;2828;53.582;9.956;2022-08-25T01:59:56;4.23;;;3.90;;
5612;SDS011;2828;53.582;9.956;2022-08-25T02:02:22;6.30;;;4.20;;
5612;SDS011;2828;53.582;9.956;2022-08-25T02:04:48;5.07;;;4.57;;
5612;SDS011;2828;53.582;9.956;2022-08-25T02:07:14;6.20;;;4.30;;
5612;SDS011;2828;53.582;9.956;2022-08-25T02:09:40;9.93;;;4.40;;
5612;SDS011;2828;53.582;9.956;2022-08-25T02:12:06;5.50;;;4.27;;
5612;SDS011;2828;53.582;9.956;2022-08-25T02:14:36;8.27;;;4.53;;
5612;SDS011;2828;53.582;9.956;2022-08-25T02:17:02;12.00;;;4.50;;
5612;SDS011;2828;53.582;9.956;2022-08-25T02:19:29;10.20;;;4.83;;
5612;SDS011;2828;53.582;9.956;2022-08-25T02:21:55;6.00;;;4.03;;
5612;SDS011;2828;53.582;9.956;2022-08-25T02:24:21;6.17;;;4.77;;
5612;SDS011;2828;53.582;9.956;2022-08-25T02:26:47;8.03;;;4.03;;
5612;SDS011;2828;53.582;9.956;2022-08-25T02:29:14;5.63;;;4.53;;
5612;SDS011;2828;53.582;9.956;2022-08-25T02:31:41;5.27;;;4.30;;
5612;SDS011;2828;53.582;9.956;2022-08-25T02:34:07;5.93;;;4.90;;
5612;SDS011;2828;53.582;9.956;2022-08-25T02:36:33;8.07;;;5.20;;
5612;SDS011;2828;53.582;9.956;2022-08-25T02:38:59;7.10;;;4.90;;
5612;SDS011;2828;53.582;9.956;2022-08-25T02:41:26;5.57;;;4.63;;
5612;SDS011;2828;53.582;9.956;2022-08-25T02:43:52;6.30;;;4.83;;
5612;SDS011;2828;53.582;9.956;2022-08-25T02:46:19;9.57;;;4.87;;
5612;SDS011;2828;53.582;9.956;2022-08-25T02:48:46;6.77;;;5.43;;
5612;SDS011;2828;53.582;9.956;2022-08-25T02:51:12;8.07;;;5.13;;
5612;SDS011;2828;53.582;9.956;2022-08-25T02:53:39;5.50;;;4.27;;
5612;SDS011;2828;53.582;9.956;2022-08-25T02:56:06;10.00;;;5.37;;
5612;SDS011;2828;53.582;9.956;2022-08-25T02:58:33;9.77;;;5.50;;
5612;SDS011;2828;53.582;9.956;2022-08-25T03:00:59;8.53;;;4.67;;
5612;SDS011;2828;53.582;9.956;2022-08-25T03:03:25;9.23;;;4.87;;
5612;SDS011;2828;53.582;9.956;2022-08-25T03:05:51;15.70;;;5.93;;
5612;SDS011;2828;53.582;9.956;2022-08-25T03:08:17;4.87;;;4.43;;
5612;SDS011;2828;53.582;9.956;2022-08-25T03:10:43;6.17;;;4.93;;
5612;SDS011;2828;53.582;9.956;2022-08-25T03:13:09;12.23;;;5.00;;
5612;SDS011;2828;53.582;9.956;2022-08-25T03:15:35;6.23;;;5.03;;
5612;SDS011;2828;53.582;9.956;2022-08-25T03:18:02;7.90;;;4.87;;
5612;SDS011;2828;53.582;9.956;2022-08-25T03:20:28;5.53;;;4.50;;
5612;SDS011;2828;53.582;9.956;2022-08-25T03:22:54;8.27;;;4.67;;
5612;SDS011;2828;53.582;9.956;2022-08-25T03:25:20;6.17;;;4.80;;
5612;SDS011;2828;53.582;9.956;2022-08-25T03:28:05;10.13;;;4.87;;
5612;SDS011;2828;53.582;9.956;2022-08-25T03:30:32;5.63;;;4.30;;
5612;SDS011;2828;53.582;9.956;2022-08-25T03:32:58;8.20;;;4.83;;
5612;SDS011;2828;53.582;9.956;2022-08-25T03:35:24;6.37;;;4.67;;
5612;SDS011;2828;53.582;9.956;2022-08-25T03:37:53;8.70;;;4.93;;
5612;SDS011;2828;53.582;9.956;2022-08-25T03:40:19;5.90;;;5.30;;
5612;SDS011;2828;53.582;9.956;2022-08-25T03:42:46;8.77;;;5.27;;
5612;SDS011;2828;53.582;9.956;2022-08-25T03:45:12;10.63;;;4.00;;
5612;SDS011;2828;53.582;9.956;2022-08-25T03:47:40;5.63;;;4.80;;
5612;SDS011;2828;53.582;9.956;2022-08-25T03:50:07;10.43;;;5.87;;
5612;SDS011;2828;53.582;9.956;2022-08-25T03:52:34;9.50;;;5.17;;
5612;SDS011;2828;53.582;9.956;2022-08-25T03:55:00;7.40;;;4.90;;
5612;SDS011;2828;53.582;9.956;2022-08-25T03:57:27;6.93;;;5.33;;
5612;SDS011;2828;53.582;9.956;2022-08-25T03:59:53;7.33;;;5.20;;
5612;SDS011;2828;53.582;9.956;2022-08-25T04:02:20;9.33;;;5.60;;
5612;SDS011;2828;53.582;9.956;2022-08-25T04:04:46;4.90;;;4.43;;
5612;SDS011;2828;53.582;9.956;2022-08-25T04:07:12;7.83;;;5.10;;
5612;SDS011;2828;53.582;9.956;2022-08-25T04:09:38;9.87;;;4.87;;
5612;SDS011;2828;53.582;9.956;2022-08-25T04:12:04;9.63;;;5.07;;
5612;SDS011;2828;53.582;9.956;2022-08-25T04:14:30;8.30;;;4.90;;
5612;SDS011;2828;53.582;9.956;2022-08-25T04:16:56;6.10;;;5.60;;
5612;SDS011;2828;53.582;9.956;2022-08-25T04:19:22;4.53;;;4.13;;
5612;SDS011;2828;53.582;9.956;2022-08-25T04:21:48;14.63;;;5.87;;
5612;SDS011;2828;53.582;9.956;2022-08-25T04:24:14;5.70;;;4.80;;
5612;SDS011;2828;53.582;9.956;2022-08-25T04:26:42;5.63;;;4.73;;
5612;SDS011;2828;53.582;9.956;2022-08-25T04:29:08;9.53;;;5.80;;
5612;SDS011;2828;53.582;9.956;2022-08-25T04:31:34;7.07;;;5.10;;
5612;SDS011;2828;53.582;9.956;2022-08-25T04:34:01;15.93;;;5.27;;
5612;SDS011;2828;53.582;9.956;2022-08-25T04:36:28;5.77;;;5.07;;
5612;SDS011;2828;53.582;9.956;2022-08-25T04:38:54;6.23;;;4.97;;
5612;SDS011;2828;53.582;9.956;2022-08-25T04:41:21;5.93;;;5.23;;
5612;SDS011;2828;53.582;9.956;2022-08-25T04:43:48;13.80;;;5.03;;
5612;SDS011;2828;53.582;9.956;2022-08-25T04:46:16;7.70;;;5.63;;
5612;SDS011;2828;53.582;9.956;2022-08-25T04:48:43;6.37;;;5.30;;
5612;SDS011;2828;53.582;9.956;2022-08-25T04:51:10;7.50;;;5.20;;
5612;SDS011;2828;53.582;9.956;2022-08-25T04:53:36;9.53;;;5.73;;
5612;SDS011;2828;53.582;9.956;2022-08-25T04:56:10;10.83;;;5.30;;
5612;SDS011;2828;53.582;9.956;2022-08-25T04:58:36;8.77;;;6.43;;
5612;SDS011;2828;53.582;9.956;2022-08-25T05:01:09;7.57;;;5.37;;
5612;SDS011;2828;53.582;9.956;2022-08-25T05:03:36;5.90;;;5.23;;
5612;SDS011;2828;53.582;9.956;2022-08-25T05:06:02;8.33;;;5.50;;
5612;SDS011;2828;53.582;9.956;2022-08-25T05:08:29;10.87;;;5.33;;
5612;SDS011;2828;53.582;9.956;2022-08-25T05:10:55;5.83;;;5.33;;
5612;SDS011;2828;53.582;9.956;2022-08-25T05:13:22;10.03;;;5.70;;
5612;SDS011;2828;53.582;9.956;2022-08-25T05:15:55;14.53;;;5.63;;
5612;SDS011;2828;53.582;9.956;2022-08-25T05:18:24;8.70;;;5.80;;
5612;SDS011;2828;53.582;9.956;2022-08-25T05:20:51;17.60;;;5.70;;
5612;SDS011;2828;53.582;9.956;2022-08-25T05:23:18;7.33;;;5.50;;
5612;SDS011;2828;53.582;9.956;2022-08-25T05:25:44;9.10;;;5.30;;
5612;SDS011;2828;53.582;9.956;2022-08-25T05:28:10;9.07;;;5.70;;
5612;SDS011;2828;53.582;9.956;2022-08-25T05:30:39;7.30;;;5.90;;
5612;SDS011;2828;53.582;9.956;2022-08-25T05:33:05;7.10;;;6.10;;
5612;SDS011;2828;53.582;9.956;2022-08-25T05:35:32;9.50;;;6.10;;
5612;SDS011;2828;53.582;9.956;2022-08-25T05:37:58;8.77;;;6.23;;
5612;SDS011;2828;53.582;9.956;2022-08-25T05:40:24;12.17;;;5.83;;
5612;SDS011;2828;53.582;9.956;2022-08-25T05:42:50;6.93;;;5.93;;
5612;SDS011;2828;53.582;9.956;2022-08-25T05:45:16;10.20;;;6.50;;
5612;SDS011;2828;53.582;9.956;2022-08-25T05:47:42;8.53;;;5.60;;
5612;SDS011;2828;53.582;9.956;2022-08-25T05:50:09;11.13;;;6.33;;
5612;SDS011;2828;53.582;9.956;2022-08-25T05:52:35;9.00;;;6.43;;
5612;SDS011;2828;53.582;9.956;2022-08-25T05:55:01;8.10;;;5.73;;
5612;SDS011;2828;53.582;9.956;2022-08-25T05:57:27;14.33;;;6.63;;
5612;SDS011;2828;53.582;9.956;2022-08-25T05:59:53;7.93;;;5.70;;
5612;SDS011;2828;53.582;9.956;2022-08-25T06:02:19;6.90;;;6.20;;
5612;SDS011;2828;53.582;9.956;2022-08-25T06:05:04;13.67;;;6.83;;
5612;SDS011;2828;53.582;9.956;2022-08-25T06:07:30;14.10;;;6.93;;
5612;SDS011;2828;53.582;9.956;2022-08-25T06:09:57;10.07;;;7.00;;
5612;SDS011;2828;53.582;9.956;2022-08-25T06:12:22;11.70;;;8.03;;
5612;SDS011;2828;53.582;9.956;2022-08-25T06:14:49;11.17;;;7.87;;
5612;SDS011;2828;53.582;9.956;2022-08-25T06:17:15;17.80;;;8.90;;
5612;SDS011;2828;53.582;9.956;2022-08-25T06:19:41;20.70;;;9.20;;
5612;SDS011;2828;53.582;9.956;2022-08-25T06:22:07;16.93;;;8.60;;
5612;SDS011;2828;53.582;9.956;2022-08-25T06:24:33;16.40;;;9.83;;
5612;SDS011;2828;53.582;9.956;2022-08-25T06:26:59;18.57;;;9.87;;
5612;SDS011;2828;53.582;9.956;2022-08-25T06:29:25;20.60;;;12.17;;
5612;SDS011;2828;53.582;9.956;2022-08-25T06:31:51;25.90;;;12.33;;
5612;SDS011;2828;53.582;9.956;2022-08-25T06:34:17;24.33;;;11.10;;
5612;SDS011;2828;53.582;9.956;2022-08-25T06:36:43;19.57;;;12.10;;
5612;SDS011;2828;53.582;9.956;2022-08-25T06:39:10;17.43;;;11.33;;
5612;SDS011;2828;53.582;9.956;2022-08-25T06:41:36;21.67;;;10.13;;
5612;SDS011;2828;53.582;9.956;2022-08-25T06:44:02;15.90;;;10.73;;
5612;SDS011;2828;53.582;9.956;2022-08-25T06:46:28;16.77;;;11.10;;
5612;SDS011;2828;53.582;9.956;2022-08-25T06:48:55;20.90;;;10.97;;
5612;SDS011;2828;53.582;9.956;2022-08-25T06:51:22;16.00;;;9.83;;
5612;SDS011;2828;53.582;9.956;2022-08-25T06:53:49;18.37;;;11.00;;
5612;SDS011;2828;53.582;9.956;2022-08-25T06:56:16;20.63;;;11.87;;
5612;SDS011;2828;53.582;9.956;2022-08-25T06:58:43;17.47;;;11.33;;
5612;SDS011;2828;53.582;9.956;2022-08-25T07:01:10;22.33;;;11.83;;
5612;SDS011;2828;53.582;9.956;2022-08-25T07:03:36;20.97;;;11.93;;
5612;SDS011;2828;53.582;9.956;2022-08-25T07:06:04;21.43;;;10.90;;
5612;SDS011;2828;53.582;9.956;2022-08-25T07:08:30;15.40;;;10.43;;
5612;SDS011;2828;53.582;9.956;2022-08-25T07:10:56;17.40;;;10.83;;
5612;SDS011;2828;53.582;9.956;2022-08-25T07:13:22;18.03;;;10.30;;
5612;SDS011;2828;53.582;9.956;2022-08-25T07:15:52;17.80;;;10.27;;
5612;SDS011;2828;53.582;9.956;2022-08-25T07:18:18;21.37;;;11.83;;
5612;SDS011;2828;53.582;9.956;2022-08-25T07:20:45;21.20;;;11.83;;
5612;SDS011;2828;53.582;9.956;2022-08-25T07:23:11;20.03;;;10.83;;
5612;SDS011;2828;53.582;9.956;2022-08-25T07:25:36;17.70;;;10.47;;
5612;SDS011;2828;53.582;9.956;2022-08-25T07:28:03;21.67;;;11.03;;
5612;SDS011;2828;53.582;9.956;2022-08-25T07:30:29;21.33;;;11.43;;
5612;SDS011;2828;53.582;9.956;2022-08-25T07:32:55;15.57;;;10.20;;
5612;SDS011;2828;53.582;9.956;2022-08-25T07:35:21;20.60;;;10.90;;
5612;SDS011;2828;53.582;9.956;2022-08-25T07:37:50;16.17;;;10.60;;
5612;SDS011;2828;53.582;9.956;2022-08-25T07:40:18;19.83;;;10.13;;
5612;SDS011;2828;53.582;9.956;2022-08-25T07:42:45;15.90;;;9.80;;
5612;SDS011;2828;53.582;9.956;2022-08-25T07:45:12;21.43;;;9.07;;
5612;SDS011;2828;53.582;9.956;2022-08-25T07:47:39;22.53;;;9.00;;
5612;SDS011;2828;53.582;9.956;2022-08-25T07:50:06;16.70;;;9.90;;
5612;SDS011;2828;53.582;9.956;2022-08-25T07:52:33;19.37;;;9.73;;
5612;SDS011;2828;53.582;9.956;2022-08-25T07:54:59;16.83;;;9.60;;
5612;SDS011;2828;53.582;9.956;2022-08-25T07:57:25;15.50;;;10.00;;
5612;SDS011;2828;53.582;9.956;2022-08-25T07:59:53;18.03;;;11.60;;
5612;SDS011;2828;53.582;9.956;2022-08-25T08:02:19;21.23;;;10.13;;
5612;SDS011;2828;53.582;9.956;2022-08-25T08:04:46;20.17;;;10.20;;
5612;SDS011;2828;53.582;9.956;2022-08-25T08:07:14;15.87;;;9.90;;
5612;SDS011;2828;53.582;9.956;2022-08-25T08:09:40;16.57;;;11.30;;
5612;SDS011;2828;53.582;9.956;2022-08-25T08:12:07;18.80;;;10.67;;
5612;SDS011;2828;53.582;9.956;2022-08-25T08:14:34;17.03;;;10.00;;
5612;SDS011;2828;53.582;9.956;2022-08-25T08:17:04;17.30;;;10.40;;
5612;SDS011;2828;53.582;9.956;2022-08-25T08:19:30;19.00;;;9.90;;
5612;SDS011;2828;53.582;9.956;2022-08-25T08:21:56;11.90;;;8.60;;
5612;SDS011;2828;53.582;9.956;2022-08-25T08:24:22;14.40;;;9.20;;
5612;SDS011;2828;53.582;9.956;2022-08-25T08:26:48;14.43;;;9.53;;
5612;SDS011;2828;53.582;9.956;2022-08-25T08:29:13;15.07;;;9.37;;
5612;SDS011;2828;53.582;9.956;2022-08-25T08:31:40;16.00;;;9.63;;
5612;SDS011;2828;53.582;9.956;2022-08-25T08:34:06;15.10;;;9.40;;
5612;SDS011;2828;53.582;9.956;2022-08-25T08:36:32;16.60;;;10.20;;
5612;SDS011;2828;53.582;9.956;2022-08-25T08:38:58;15.33;;;9.70;;
5612;SDS011;2828;53.582;9.956;2022-08-25T08:44:32;13.93;;;10.43;;
5612;SDS011;2828;53.582;9.956;2022-08-25T08:47:10;12.30;;;9.50;;
5612;SDS011;2828;53.582;9.956;2022-08-25T08:52:14;16.43;;;10.27;;
5612;SDS011;2828;53.582;9.956;2022-08-25T08:54:40;16.57;;;8.80;;
5612;SDS011;2828;53.582;9.956;2022-08-25T08:57:08;14.17;;;9.30;;
5612;SDS011;2828;53.582;9.956;2022-08-25T08:59:45;12.93;;;7.87;;
5612;SDS011;2828;53.582;9.956;2022-08-25T09:02:15;10.80;;;8.30;;
5612;SDS011;2828;53.582;9.956;2022-08-25T09:04:56;13.93;;;8.20;;
5612;SDS011;2828;53.582;9.956;2022-08-25T09:07:29;11.83;;;8.40;;
5612;SDS011;2828;53.582;9.956;2022-08-25T09:09:56;7.97;;;7.00;;
5612;SDS011;2828;53.582;9.956;2022-08-25T09:25:27;11.40;;;8.07;;
5612;SDS011;2828;53.582;9.956;2022-08-25T09:28:18;13.90;;;9.50;;
5612;SDS011;2828;53.582;9.956;2022-08-25T09:33:14;11.97;;;8.00;;
5612;SDS011;2828;53.582;9.956;2022-08-25T09:35:42;12.00;;;8.40;;
5612;SDS011;2828;53.582;9.956;2022-08-25T09:38:10;14.80;;;9.10;;
5612;SDS011;2828;53.582;9.956;2022-08-25T09:40:37;12.73;;;8.70;;
5612;SDS011;2828;53.582;9.956;2022-08-25T09:43:08;15.17;;;9.43;;
5612;SDS011;2828;53.582;9.956;2022-08-25T09:45:43;21.13;;;10.10;;
5612;SDS011;2828;53.582;9.956;2022-08-25T09:49:11;13.00;;;9.03;;
5612;SDS011;2828;53.582;9.956;2022-08-25T09:51:10;19.63;;;10.17;;
5612;SDS011;2828;53.582;9.956;2022-08-25T09:53:38;16.27;;;10.00;;
5612;SDS011;2828;53.582;9.956;2022-08-25T09:56:09;12.80;;;8.67;;
5612;SDS011;2828;53.582;9.956;2022-08-25T09:58:36;11.67;;;8.63;;
5612;SDS011;2828;53.582;9.956;2022-08-25T10:01:11;20.77;;;9.80;;
5612;SDS011;2828;53.582;9.956;2022-08-25T10:06:23;21.43;;;9.50;;
5612;SDS011;2828;53.582;9.956;2022-08-25T10:11:30;15.30;;;10.20;;
5612;SDS011;2828;53.582;9.956;2022-08-25T10:14:02;13.13;;;9.83;;
5612;SDS011;2828;53.582;9.956;2022-08-25T10:16:29;17.20;;;9.97;;
5612;SDS011;2828;53.582;9.956;2022-08-25T10:21:25;14.50;;;9.00;;
5612;SDS011;2828;53.582;9.956;2022-08-25T10:23:51;13.60;;;9.70;;
5612;SDS011;2828;53.582;9.956;2022-08-25T10:29:08;13.77;;;8.57;;
5612;SDS011;2828;53.582;9.956;2022-08-25T10:31:47;13.13;;;9.27;;
5612;SDS011;2828;53.582;9.956;2022-08-25T10:39:33;15.57;;;9.27;;
5612;SDS011;2828;53.582;9.956;2022-08-25T10:44:38;11.50;;;9.27;;
5612;SDS011;2828;53.582;9.956;2022-08-25T10:49:55;13.00;;;7.23;;
5612;SDS011;2828;53.582;9.956;2022-08-25T10:55:05;8.38;;;7.28;;
5612;SDS011;2828;53.582;9.956;2022-08-25T11:00:13;11.80;;;6.03;;
5612;SDS011;2828;53.582;9.956;2022-08-25T11:05:20;5.47;;;4.57;;
5612;SDS011;2828;53.582;9.956;2022-08-25T11:07:49;6.45;;;4.45;;
5612;SDS011;2828;53.582;9.956;2022-08-25T11:10:18;6.65;;;4.07;;
5612;SDS011;2828;53.582;9.956;2022-08-25T11:12:46;8.55;;;4.85;;
5612;SDS011;2828;53.582;9.956;2022-08-25T11:15:16;12.82;;;4.20;;
5612;SDS011;2828;53.582;9.956;2022-08-25T11:20:26;5.97;;;4.30;;
5612;SDS011;2828;53.582;9.956;2022-08-25T11:22:59;7.25;;;4.50;;
5612;SDS011;2828;53.582;9.956;2022-08-25T11:26:12;5.00;;;4.00;;
5612;SDS011;2828;53.582;9.956;2022-08-25T11:30:49;7.10;;;3.58;;
5612;SDS011;2828;53.582;9.956;2022-08-25T11:33:16;3.95;;;3.63;;
5612;SDS011;2828;53.582;9.956;2022-08-25T11:35:48;4.80;;;4.22;;
5612;SDS011;2828;53.582;9.956;2022-08-25T11:38:21;6.97;;;4.18;;
5612;SDS011;2828;53.582;9.956;2022-08-25T11:41:51;10.25;;;3.95;;
5612;SDS011;2828;53.582;9.956;2022-08-25T11:43:59;9.02;;;3.85;;
5612;SDS011;2828;53.582;9.956;2022-08-25T11:51:33;9.27;;;3.33;;
5612;SDS011;2828;53.582;9.956;2022-08-25T11:56:51;5.40;;;3.83;;
5612;SDS011;2828;53.582;9.956;2022-08-25T12:02:02;11.05;;;3.60;;
5612;SDS011;2828;53.582;9.956;2022-08-25T12:04:36;4.65;;;3.50;;
5612;SDS011;2828;53.582;9.956;2022-08-25T12:10:20;24.40;;;3.72;;
5612;SDS011;2828;53.582;9.956;2022-08-25T12:14:52;3.22;;;3.03;;
5612;SDS011;2828;53.582;9.956;2022-08-25T12:17:20;4.88;;;3.60;;
5612;SDS011;2828;53.582;9.956;2022-08-25T12:19:48;7.85;;;3.53;;
5612;SDS011;2828;53.582;9.956;2022-08-25T12:29:57;5.50;;;3.22;;
5612;SDS011;2828;53.582;9.956;2022-08-25T12:40:30;5.63;;;3.08;;
5612;SDS011;2828;53.582;9.956;2022-08-25T12:43:05;7.75;;;3.03;;
5612;SDS011;2828;53.582;9.956;2022-08-25T12:45:39;7.20;;;3.55;;
5612;SDS011;2828;53.582;9.956;2022-08-25T12:51:07;5.53;;;3.33;;
5612;SDS011;2828;53.582;9.956;2022-08-25T12:53:48;4.75;;;3.22;;
5612;SDS011;2828;53.582;9.956;2022-08-25T12:56:17;5.45;;;3.35;;
5612;SDS011;2828;53.582;9.956;2022-08-25T12:59:06;3.20;;;3.00;;
5612;SDS011;2828;53.582;9.956;2022-08-25T13:09:23;5.35;;;2.80;;
5612;SDS011;2828;53.582;9.956;2022-08-25T13:14:35;3.55;;;3.05;;
5612;SDS011;2828;53.582;9.956;2022-08-25T13:17:02;5.30;;;3.13;;
5612;SDS011;2828;53.582;9.956;2022-08-25T13:19:28;5.60;;;2.97;;
5612;SDS011;2828;53.582;9.956;2022-08-25T13:21:54;4.00;;;3.20;;
5612;SDS011;2828;53.582;9.956;2022-08-25T13:24:27;4.60;;;2.97;;
5612;SDS011;2828;53.582;9.956;2022-08-25T13:26:54;2.95;;;2.58;;
5612;SDS011;2828;53.582;9.956;2022-08-25T13:29:22;4.25;;;2.92;;
5612;SDS011;2828;53.582;9.956;2022-08-25T13:31:55;3.38;;;3.08;;
5612;SDS011;2828;53.582;9.956;2022-08-25T13:34:23;3.55;;;3.20;;
5612;SDS011;2828;53.582;9.956;2022-08-25T13:36:50;10.35;;;3.55;;
5612;SDS011;2828;53.582;9.956;2022-08-25T13:39:36;4.47;;;2.30;;
5612;SDS011;2828;53.582;9.956;2022-08-25T13:42:04;5.70;;;2.75;;
5612;SDS011;2828;53.582;9.956;2022-08-25T13:44:34;2.88;;;2.67;;
5612;SDS011;2828;53.582;9.956;2022-08-25T13:49:39;6.63;;;2.80;;
5612;SDS011;2828;53.582;9.956;2022-08-25T13:52:05;3.10;;;2.90;;
5612;SDS011;2828;53.582;9.956;2022-08-25T13:54:36;7.10;;;3.63;;
5612;SDS011;2828;53.582;9.956;2022-08-25T13:57:20;7.55;;;2.63;;
5612;SDS011;2828;53.582;9.956;2022-08-25T13:59:48;6.28;;;3.47;;
5612;SDS011;2828;53.582;9.956;2022-08-25T14:02:25;5.63;;;2.35;;
5612;SDS011;2828;53.582;9.956;2022-08-25T14:05:00;4.28;;;2.80;;
5612;SDS011;2828;53.582;9.956;2022-08-25T14:07:28;6.50;;;2.85;;
5612;SDS011;2828;53.582;9.956;2022-08-25T14:15:24;3.13;;;2.80;;
5612;SDS011;2828;53.582;9.956;2022-08-25T14:17:59;3.33;;;3.03;;
5612;SDS011;2828;53.582;9.956;2022-08-25T14:20:27;11.30;;;3.13;;
5612;SDS011;2828;53.582;9.956;2022-08-25T14:22:55;5.40;;;3.30;;
5612;SDS011;2828;53.582;9.956;2022-08-25T14:25:21;5.80;;;3.65;;
5612;SDS011;2828;53.582;9.956;2022-08-25T14:27:55;8.13;;;3.38;;
5612;SDS011;2828;53.582;9.956;2022-08-25T14:30:21;3.60;;;2.88;;
5612;SDS011;2828;53.582;9.956;2022-08-25T14:32:47;3.33;;;3.03;;
5612;SDS011;2828;53.582;9.956;2022-08-25T14:35:13;2.90;;;2.70;;
5612;SDS011;2828;53.582;9.956;2022-08-25T14:37:39;8.52;;;3.30;;
5612;SDS011;2828;53.582;9.956;2022-08-25T14:40:05;2.92;;;2.58;;
5612;SDS011;2828;53.582;9.956;2022-08-25T14:42:31;3.35;;;3.03;;
5612;SDS011;2828;53.582;9.956;2022-08-25T14:44:58;4.95;;;3.33;;
5612;SDS011;2828;53.582;9.956;2022-08-25T14:47:24;3.75;;;3.08;;
5612;SDS011;2828;53.582;9.956;2022-08-25T14:49:50;3.13;;;2.80;;
5612;SDS011;2828;53.582;9.956;2022-08-25T14:52:21;3.40;;;3.20;;
5612;SDS011;2828;53.582;9.956;2022-08-25T14:54:50;3.22;;;3.03;;
5612;SDS011;2828;53.582;9.956;2022-08-25T14:57:16;5.20;;;2.90;;
5612;SDS011;2828;53.582;9.956;2022-08-25T14:59:43;3.35;;;3.15;;
5612;SDS011;2828;53.582;9.956;2022-08-25T15:02:10;5.95;;;3.25;;
5612;SDS011;2828;53.582;9.956;2022-08-25T15:04:38;8.43;;;3.20;;
5612;SDS011;2828;53.582;9.956;2022-08-25T15:07:04;4.97;;;3.40;;
5612;SDS011;2828;53.582;9.956;2022-08-25T15:09:50;4.38;;;3.78;;
5612;SDS011;2828;53.582;9.956;2022-08-25T15:12:16;6.80;;;2.90;;
5612;SDS011;2828;53.582;9.956;2022-08-25T15:14:43;3.20;;;2.92;;
5612;SDS011;2828;53.582;9.956;2022-08-25T15:17:09;8.52;;;3.40;;
5612;SDS011;2828;53.582;9.956;2022-08-25T15:19:41;5.35;;;3.10;;
5612;SDS011;2828;53.582;9.956;2022-08-25T15:22:07;11.23;;;3.20;;
5612;SDS011;2828;53.582;9.956;2022-08-25T15:24:33;6.50;;;3.20;;
5612;SDS011;2828;53.582;9.956;2022-08-25T15:27:00;13.13;;;3.30;;
5612;SDS011;2828;53.582;9.956;2022-08-25T15:29:29;4.70;;;3.28;;
5612;SDS011;2828;53.582;9.956;2022-08-25T15:31:56;5.22;;;3.30;;
5612;SDS011;2828;53.582;9.956;2022-08-25T15:34:22;3.97;;;3.50;;
5612;SDS011;2828;53.582;9.956;2022-08-25T15:36:48;5.50;;;3.35;;
5612;SDS011;2828;53.582;9.956;2022-08-25T15:39:14;3.38;;;3.08;;
5612;SDS011;2828;53.582;9.956;2022-08-25T15:41:41;4.07;;;3.22;;
5612;SDS011;2828;53.582;9.956;2022-08-25T15:44:07;4.05;;;3.55;;
5612;SDS011;2828;53.582;9.956;2022-08-25T15:46:35;4.13;;;3.65;;
5612;SDS011;2828;53.582;9.956;2022-08-25T15:49:02;5.43;;;3.80;;
5612;SDS011;2828;53.582;9.956;2022-08-25T15:51:29;15.02;;;3.40;;
5612;SDS011;2828;53.582;9.956;2022-08-25T15:53:55;3.50;;;3.20;;
5612;SDS011;2828;53.582;9.956;2022-08-25T15:56:22;7.20;;;3.60;;
5612;SDS011;2828;53.582;9.956;2022-08-25T15:58:48;3.05;;;2.85;;
5612;SDS011;2828;53.582;9.956;2022-08-25T16:01:15;4.45;;;3.15;;
5612;SDS011;2828;53.582;9.956;2022-08-25T16:03:41;5.95;;;2.83;;
5612;SDS011;2828;53.582;9.956;2022-08-25T16:06:07;3.35;;;3.05;;
5612;SDS011;2828;53.582;9.956;2022-08-25T16:08:33;3.92;;;3.50;;
5612;SDS011;2828;53.582;9.956;2022-08-25T16:10:59;3.70;;;3.00;;
5612;SDS011;2828;53.582;9.956;2022-08-25T16:13:26;12.30;;;3.28;;
5612;SDS011;2828;53.582;9.956;2022-08-25T16:15:52;3.80;;;3.08;;
5612;SDS011;2828;53.582;9.956;2022-08-25T16:18:19;8.60;;;3.95;;
5612;SDS011;2828;53.582;9.956;2022-08-25T16:20:46;3.08;;;2.88;;
5612;SDS011;2828;53.582;9.956;2022-08-25T16:23:12;4.28;;;3.60;;
5612;SDS011;2828;53.582;9.956;2022-08-25T16:25:40;8.63;;;3.85;;
5612;SDS011;2828;53.582;9.956;2022-08-25T16:28:07;4.97;;;3.40;;
5612;SDS011;2828;53.582;9.956;2022-08-25T16:30:33;7.75;;;3.10;;
5612;SDS011;2828;53.582;9.956;2022-08-25T16:32:59;6.80;;;3.15;;
5612;SDS011;2828;53.582;9.956;2022-08-25T16:35:25;5.72;;;2.95;;
5612;SDS011;2828;53.582;9.956;2022-08-25T16:37:52;3.03;;;2.83;;
5612;SDS011;2828;53.582;9.956;2022-08-25T16:40:18;4.40;;;3.10;;
5612;SDS011;2828;53.582;9.956;2022-08-25T16:42:48;5.07;;;3.30;;
5612;SDS011;2828;53.582;9.956;2022-08-25T16:45:14;5.10;;;3.65;;
5612;SDS011;2828;53.582;9.956;2022-08-25T16:47:41;4.35;;;3.65;;
5612;SDS011;2828;53.582;9.956;2022-08-25T16:50:07;8.93;;;3.67;;
5612;SDS011;2828;53.582;9.956;2022-08-25T16:52:33;6.72;;;3.38;;
5612;SDS011;2828;53.582;9.956;2022-08-25T16:55:18;3.70;;;3.33;;
5612;SDS011;2828;53.582;9.956;2022-08-25T16:57:45;5.28;;;4.78;;
5612;SDS011;2828;53.582;9.956;2022-08-25T17:00:13;4.45;;;3.45;;
5612;SDS011;2828;53.582;9.956;2022-08-25T17:02:40;5.18;;;3.20;;
5612;SDS011;2828;53.582;9.956;2022-08-25T17:05:07;10.02;;;3.58;;
5612;SDS011;2828;53.582;9.956;2022-08-25T17:07:34;6.28;;;3.88;;